sensor_id;sensor_type;location;lat;lon;timestamp;P1;durP1;ratioP1;P2;durP2;ratioP2
2476;SDS011;1249;51.270;6.756;2023-04-08T00:08:29;14.33;;;12.00;;
2476;SDS011;1249;51.270;6.756;2023-04-08T00:10:54;17.67;;;13.60;;
2476;SDS011;1249;51.270;6.756;2023-04-08T00:13:20;15.03;;;12.93;;
2476;SDS011;1249;51.270;6.756;2023-04-08T00:15:46;16.33;;;14.20;;
2476;SDS011;1249;51.270;6.756;2023-04-08T00:18:15;15.90;;;13.07;;
2476;SDS011;1249;51.270;6.756;2023-04-08T05:14:19;38.90;;;22.37;;
2476;SDS011;1249;51.270;6.756;2023-04-08T05:16:45;36.07;;;25.30;;
2476;SDS011;1249;51.270;6.756;2023-04-08T05:19:11;36.43;;;25.33;;
2476;SDS011;1249;51.270;6.756;2023-04-08T05:27:28;32.73;;;24.23;;
2476;SDS011;1249;51.270;6.756;2023-04-08T05:29:53;28.37;;;22.97;;
2476;SDS011;1249;51.270;6.756;2023-04-08T05:32:19;25.97;;;22.50;;
2476;SDS011;1249;51.270;6.756;2023-04-08T05:34:47;27.40;;;22.10;;
2476;SDS011;1249;51.270;6.756;2023-04-08T05:37:13;33.07;;;24.60;;
2476;SDS011;1249;51.270;6.756;2023-04-08T05:39:38;30.47;;;24.77;;
2476;SDS011;1249;51.270;6.756;2023-04-08T05:42:04;30.90;;;24.10;;
2476;SDS011;1249;51.270;6.756;2023-04-08T05:44:30;30.67;;;24.60;;
2476;SDS011;1249;51.270;6.756;2023-04-08T05:46:55;31.37;;;25.50;;
2476;SDS011;1249;51.270;6.756;2023-04-08T05:49:22;30.13;;;22.20;;
2476;SDS011;1249;51.270;6.756;2023-04-08T05:51:47;32.33;;;24.10;;
2476;SDS011;1249;51.270;6.756;2023-04-08T05:54:13;33.10;;;24.73;;
2476;SDS011;1249;51.270;6.756;2023-04-08T05:56:39;34.00;;;24.83;;
2476;SDS011;1249;51.270;6.756;2023-04-08T05:59:04;32.60;;;24.03;;
2476;SDS011;1249;51.270;6.756;2023-04-08T06:01:30;30.23;;;21.00;;
2476;SDS011;1249;51.270;6.756;2023-04-08T06:03:55;27.87;;;23.03;;
2476;SDS011;1249;51.270;6.756;2023-04-08T06:06:21;33.83;;;23.60;;
2476;SDS011;1249;51.270;6.756;2023-04-08T06:08:47;34.97;;;24.90;;
2476;SDS011;1249;51.270;6.756;2023-04-08T06:11:13;34.00;;;23.70;;
2476;SDS011;1249;51.270;6.756;2023-04-08T06:13:38;28.37;;;23.20;;
2476;SDS011;1249;51.270;6.756;2023-04-08T06:16:10;30.73;;;23.10;;
2476;SDS011;1249;51.270;6.756;2023-04-08T06:18:36;33.13;;;23.67;;
2476;SDS011;1249;51.270;6.756;2023-04-08T06:21:02;37.27;;;25.90;;
2476;SDS011;1249;51.270;6.756;2023-04-08T06:23:28;41.73;;;27.07;;
2476;SDS011;1249;51.270;6.756;2023-04-08T06:25:53;42.30;;;26.03;;
2476;SDS011;1249;51.270;6.756;2023-04-08T06:28:19;37.63;;;24.43;;
2476;SDS011;1249;51.270;6.756;2023-04-08T06:30:44;40.13;;;26.33;;
2476;SDS011;1249;51.270;6.756;2023-04-08T06:33:10;43.50;;;29.30;;
2476;SDS011;1249;51.270;6.756;2023-04-08T06:35:35;40.87;;;27.50;;
2476;SDS011;1249;51.270;6.756;2023-04-08T06:38:03;50.33;;;28.87;;
2476;SDS011;1249;51.270;6.756;2023-04-08T06:40:29;48.53;;;31.20;;
2476;SDS011;1249;51.270;6.756;2023-04-08T06:42:55;46.70;;;30.17;;
2476;SDS011;1249;51.270;6.756;2023-04-08T06:45:21;41.77;;;26.10;;
2476;SDS011;1249;51.270;6.756;2023-04-08T06:47:47;43.80;;;28.73;;
2476;SDS011;1249;51.270;6.756;2023-04-08T06:50:13;47.87;;;28.10;;
2476;SDS011;1249;51.270;6.756;2023-04-08T06:52:39;52.83;;;32.67;;
2476;SDS011;1249;51.270;6.756;2023-04-08T06:55:04;48.27;;;30.40;;
2476;SDS011;1249;51.270;6.756;2023-04-08T06:57:30;55.23;;;32.93;;
2476;SDS011;1249;51.270;6.756;2023-04-08T06:59:56;59.13;;;30.80;;
2476;SDS011;1249;51.270;6.756;2023-04-08T07:02:21;49.57;;;28.73;;
2476;SDS011;1249;51.270;6.756;2023-04-08T07:04:47;43.57;;;28.37;;
2476;SDS011;1249;51.270;6.756;2023-04-08T07:07:13;43.67;;;27.17;;
2476;SDS011;1249;51.270;6.756;2023-04-08T07:09:38;47.07;;;27.00;;
2476;SDS011;1249;51.270;6.756;2023-04-08T07:12:07;42.47;;;28.20;;
2476;SDS011;1249;51.270;6.756;2023-04-08T07:14:33;47.53;;;30.43;;
2476;SDS011;1249;51.270;6.756;2023-04-08T07:16:58;47.43;;;30.77;;
2476;SDS011;1249;51.270;6.756;2023-04-08T07:19:24;50.27;;;28.87;;
2476;SDS011;1249;51.270;6.756;2023-04-08T07:21:49;48.63;;;27.93;;
2476;SDS011;1249;51.270;6.756;2023-04-08T07:24:16;45.37;;;27.73;;
2476;SDS011;1249;51.270;6.756;2023-04-08T07:26:42;51.07;;;28.87;;
2476;SDS011;1249;51.270;6.756;2023-04-08T07:29:08;52.20;;;31.83;;
2476;SDS011;1249;51.270;6.756;2023-04-08T07:31:33;54.80;;;30.03;;
2476;SDS011;1249;51.270;6.756;2023-04-08T07:33:59;41.53;;;27.50;;
2476;SDS011;1249;51.270;6.756;2023-04-08T07:36:25;49.30;;;30.20;;
2476;SDS011;1249;51.270;6.756;2023-04-08T07:38:50;52.23;;;29.50;;
2476;SDS011;1249;51.270;6.756;2023-04-08T07:41:16;43.93;;;27.80;;
2476;SDS011;1249;51.270;6.756;2023-04-08T07:43:42;46.13;;;30.33;;
2476;SDS011;1249;51.270;6.756;2023-04-08T07:46:07;55.33;;;30.13;;
2476;SDS011;1249;51.270;6.756;2023-04-08T07:48:33;47.53;;;29.20;;
2476;SDS011;1249;51.270;6.756;2023-04-08T07:51:06;40.70;;;24.83;;
2476;SDS011;1249;51.270;6.756;2023-04-08T07:53:32;42.27;;;26.43;;
2476;SDS011;1249;51.270;6.756;2023-04-08T07:55:58;39.13;;;25.63;;
2476;SDS011;1249;51.270;6.756;2023-04-08T07:58:25;35.43;;;23.33;;
2476;SDS011;1249;51.270;6.756;2023-04-08T08:00:51;39.90;;;25.33;;
2476;SDS011;1249;51.270;6.756;2023-04-08T08:03:17;38.00;;;26.27;;
2476;SDS011;1249;51.270;6.756;2023-04-08T08:05:42;34.93;;;24.47;;
2476;SDS011;1249;51.270;6.756;2023-04-08T08:08:08;39.23;;;25.67;;
2476;SDS011;1249;51.270;6.756;2023-04-08T08:10:36;38.87;;;24.80;;
2476;SDS011;1249;51.270;6.756;2023-04-08T08:13:02;33.70;;;23.70;;
2476;SDS011;1249;51.270;6.756;2023-04-08T08:15:28;43.87;;;28.27;;
2476;SDS011;1249;51.270;6.756;2023-04-08T08:17:54;48.97;;;27.33;;
2476;SDS011;1249;51.270;6.756;2023-04-08T08:20:19;46.63;;;28.60;;
2476;SDS011;1249;51.270;6.756;2023-04-08T08:22:45;49.33;;;27.00;;
2476;SDS011;1249;51.270;6.756;2023-04-08T08:25:10;48.37;;;26.53;;
2476;SDS011;1249;51.270;6.756;2023-04-08T08:27:36;50.37;;;27.40;;
2476;SDS011;1249;51.270;6.756;2023-04-08T08:30:02;42.20;;;27.03;;
2476;SDS011;1249;51.270;6.756;2023-04-08T08:32:28;49.97;;;29.63;;
2476;SDS011;1249;51.270;6.756;2023-04-08T08:34:53;63.70;;;36.07;;
2476;SDS011;1249;51.270;6.756;2023-04-08T08:37:19;51.10;;;31.50;;
2476;SDS011;1249;51.270;6.756;2023-04-08T08:39:45;46.30;;;28.13;;
2476;SDS011;1249;51.270;6.756;2023-04-08T08:42:23;46.70;;;28.93;;
2476;SDS011;1249;51.270;6.756;2023-04-08T08:44:50;56.57;;;35.87;;
2476;SDS011;1249;51.270;6.756;2023-04-08T08:47:16;74.60;;;41.40;;
2476;SDS011;1249;51.270;6.756;2023-04-08T08:49:42;73.23;;;44.47;;
2476;SDS011;1249;51.270;6.756;2023-04-08T08:52:08;71.33;;;38.20;;
2476;SDS011;1249;51.270;6.756;2023-04-08T08:54:34;66.50;;;41.33;;
2476;SDS011;1249;51.270;6.756;2023-04-08T08:57:00;66.60;;;37.60;;
2476;SDS011;1249;51.270;6.756;2023-04-08T08:59:25;66.83;;;38.07;;
2476;SDS011;1249;51.270;6.756;2023-04-08T09:01:53;67.77;;;37.13;;
2476;SDS011;1249;51.270;6.756;2023-04-08T09:04:19;60.83;;;34.90;;
2476;SDS011;1249;51.270;6.756;2023-04-08T09:06:46;58.10;;;37.00;;
2476;SDS011;1249;51.270;6.756;2023-04-08T09:09:48;62.07;;;35.87;;
2476;SDS011;1249;51.270;6.756;2023-04-08T09:12:15;74.00;;;40.00;;
2476;SDS011;1249;51.270;6.756;2023-04-08T09:14:40;57.20;;;34.90;;
2476;SDS011;1249;51.270;6.756;2023-04-08T09:17:07;64.87;;;38.10;;
2476;SDS011;1249;51.270;6.756;2023-04-08T09:19:32;53.90;;;35.27;;
2476;SDS011;1249;51.270;6.756;2023-04-08T09:22:08;53.33;;;33.90;;
2476;SDS011;1249;51.270;6.756;2023-04-08T09:24:36;53.50;;;34.60;;
2476;SDS011;1249;51.270;6.756;2023-04-08T09:27:03;50.67;;;34.93;;
2476;SDS011;1249;51.270;6.756;2023-04-08T09:29:29;52.27;;;37.13;;
2476;SDS011;1249;51.270;6.756;2023-04-08T09:31:58;48.93;;;33.80;;
2476;SDS011;1249;51.270;6.756;2023-04-08T09:34:25;50.40;;;35.17;;
2476;SDS011;1249;51.270;6.756;2023-04-08T09:36:52;45.53;;;32.60;;
2476;SDS011;1249;51.270;6.756;2023-04-08T09:39:18;49.20;;;33.63;;
2476;SDS011;1249;51.270;6.756;2023-04-08T09:41:44;48.93;;;32.83;;
2476;SDS011;1249;51.270;6.756;2023-04-08T09:44:14;49.83;;;32.37;;
2476;SDS011;1249;51.270;6.756;2023-04-08T09:49:37;51.30;;;32.47;;
2476;SDS011;1249;51.270;6.756;2023-04-08T09:52:20;46.40;;;32.37;;
2476;SDS011;1249;51.270;6.756;2023-04-08T09:54:55;49.27;;;34.03;;
2476;SDS011;1249;51.270;6.756;2023-04-08T09:57:45;59.50;;;35.40;;
2476;SDS011;1249;51.270;6.756;2023-04-08T10:00:21;50.97;;;35.60;;
2476;SDS011;1249;51.270;6.756;2023-04-08T10:03:06;56.63;;;35.10;;
2476;SDS011;1249;51.270;6.756;2023-04-08T10:05:36;47.67;;;33.60;;
2476;SDS011;1249;51.270;6.756;2023-04-08T10:08:04;53.70;;;34.63;;
2476;SDS011;1249;51.270;6.756;2023-04-08T10:10:31;52.03;;;33.07;;
2476;SDS011;1249;51.270;6.756;2023-04-08T10:12:59;43.97;;;31.23;;
2476;SDS011;1249;51.270;6.756;2023-04-08T10:15:32;50.70;;;33.47;;
2476;SDS011;1249;51.270;6.756;2023-04-08T10:22:58;43.17;;;31.47;;
2476;SDS011;1249;51.270;6.756;2023-04-08T10:25:31;39.03;;;30.37;;
2476;SDS011;1249;51.270;6.756;2023-04-08T10:27:58;44.63;;;31.13;;
2476;SDS011;1249;51.270;6.756;2023-04-08T10:32:57;45.73;;;29.03;;
2476;SDS011;1249;51.270;6.756;2023-04-08T10:37:56;40.77;;;30.87;;
2476;SDS011;1249;51.270;6.756;2023-04-08T10:40:22;48.67;;;31.00;;
2476;SDS011;1249;51.270;6.756;2023-04-08T10:42:57;45.27;;;31.70;;
2476;SDS011;1249;51.270;6.756;2023-04-08T10:45:23;48.47;;;31.60;;
2476;SDS011;1249;51.270;6.756;2023-04-08T10:47:49;44.73;;;30.10;;
2476;SDS011;1249;51.270;6.756;2023-04-08T10:50:18;49.57;;;30.10;;
2476;SDS011;1249;51.270;6.756;2023-04-08T10:52:47;45.33;;;28.87;;
2476;SDS011;1249;51.270;6.756;2023-04-08T10:55:23;48.00;;;30.50;;
2476;SDS011;1249;51.270;6.756;2023-04-08T10:57:52;45.13;;;30.23;;
2476;SDS011;1249;51.270;6.756;2023-04-08T11:00:39;51.57;;;30.00;;
2476;SDS011;1249;51.270;6.756;2023-04-08T11:03:07;41.30;;;28.17;;
2476;SDS011;1249;51.270;6.756;2023-04-08T11:05:34;42.67;;;26.77;;
2476;SDS011;1249;51.270;6.756;2023-04-08T11:08:02;36.77;;;27.83;;
2476;SDS011;1249;51.270;6.756;2023-04-08T11:10:28;42.73;;;25.13;;
2476;SDS011;1249;51.270;6.756;2023-04-08T11:12:54;40.83;;;29.27;;
2476;SDS011;1249;51.270;6.756;2023-04-08T11:15:20;39.83;;;28.73;;
2476;SDS011;1249;51.270;6.756;2023-04-08T11:17:46;39.40;;;27.70;;
2476;SDS011;1249;51.270;6.756;2023-04-08T11:20:13;34.73;;;25.77;;
2476;SDS011;1249;51.270;6.756;2023-04-08T11:22:39;34.37;;;24.80;;
2476;SDS011;1249;51.270;6.756;2023-04-08T11:25:06;36.33;;;26.90;;
2476;SDS011;1249;51.270;6.756;2023-04-08T11:27:34;29.77;;;25.00;;
2476;SDS011;1249;51.270;6.756;2023-04-08T11:30:00;37.83;;;27.13;;
2476;SDS011;1249;51.270;6.756;2023-04-08T11:32:26;44.83;;;29.10;;
2476;SDS011;1249;51.270;6.756;2023-04-08T11:34:53;37.13;;;24.87;;
2476;SDS011;1249;51.270;6.756;2023-04-08T11:37:18;46.50;;;30.93;;
2476;SDS011;1249;51.270;6.756;2023-04-08T11:39:44;24.20;;;19.00;;
2476;SDS011;1249;51.270;6.756;2023-04-08T11:42:30;22.17;;;18.90;;
2476;SDS011;1249;51.270;6.756;2023-04-08T11:44:57;31.60;;;23.27;;
2476;SDS011;1249;51.270;6.756;2023-04-08T11:47:29;15.90;;;13.60;;
2476;SDS011;1249;51.270;6.756;2023-04-08T11:49:56;16.90;;;14.03;;
2476;SDS011;1249;51.270;6.756;2023-04-08T11:52:22;18.83;;;14.00;;
2476;SDS011;1249;51.270;6.756;2023-04-08T11:55:04;10.60;;;9.00;;
2476;SDS011;1249;51.270;6.756;2023-04-08T11:57:30;13.57;;;12.17;;
2476;SDS011;1249;51.270;6.756;2023-04-08T11:59:56;13.30;;;12.00;;
2476;SDS011;1249;51.270;6.756;2023-04-08T12:02:22;12.80;;;11.50;;
2476;SDS011;1249;51.270;6.756;2023-04-08T12:04:48;9.67;;;8.73;;
2476;SDS011;1249;51.270;6.756;2023-04-08T12:07:13;8.37;;;7.57;;
2476;SDS011;1249;51.270;6.756;2023-04-08T12:09:39;8.70;;;7.80;;
2476;SDS011;1249;51.270;6.756;2023-04-08T12:12:04;11.23;;;10.13;;
2476;SDS011;1249;51.270;6.756;2023-04-08T12:14:30;11.63;;;9.63;;
2476;SDS011;1249;51.270;6.756;2023-04-08T12:16:56;7.97;;;7.27;;
2476;SDS011;1249;51.270;6.756;2023-04-08T12:19:22;10.63;;;8.90;;
2476;SDS011;1249;51.270;6.756;2023-04-08T12:21:47;11.63;;;10.20;;
2476;SDS011;1249;51.270;6.756;2023-04-08T12:24:13;8.10;;;7.30;;
2476;SDS011;1249;51.270;6.756;2023-04-08T12:26:38;7.27;;;6.53;;
2476;SDS011;1249;51.270;6.756;2023-04-08T12:29:04;8.43;;;7.43;;
2476;SDS011;1249;51.270;6.756;2023-04-08T12:31:30;10.77;;;9.70;;
2476;SDS011;1249;51.270;6.756;2023-04-08T12:33:55;9.27;;;7.90;;
2476;SDS011;1249;51.270;6.756;2023-04-08T12:36:21;8.67;;;7.90;;
2476;SDS011;1249;51.270;6.756;2023-04-08T12:38:46;7.93;;;7.17;;
2476;SDS011;1249;51.270;6.756;2023-04-08T12:41:12;13.50;;;11.67;;
2476;SDS011;1249;51.270;6.756;2023-04-08T12:43:37;14.20;;;11.90;;
2476;SDS011;1249;51.270;6.756;2023-04-08T12:46:03;9.23;;;8.37;;
2476;SDS011;1249;51.270;6.756;2023-04-08T12:48:28;20.40;;;16.57;;
2476;SDS011;1249;51.270;6.756;2023-04-08T12:50:54;16.50;;;15.10;;
2476;SDS011;1249;51.270;6.756;2023-04-08T12:53:20;11.53;;;10.50;;
2476;SDS011;1249;51.270;6.756;2023-04-08T12:55:45;10.70;;;9.60;;
2476;SDS011;1249;51.270;6.756;2023-04-08T12:58:11;11.13;;;8.90;;
2476;SDS011;1249;51.270;6.756;2023-04-08T13:00:36;7.90;;;7.20;;
2476;SDS011;1249;51.270;6.756;2023-04-08T13:03:02;8.77;;;7.97;;
2476;SDS011;1249;51.270;6.756;2023-04-08T13:05:28;9.00;;;8.20;;
2476;SDS011;1249;51.270;6.756;2023-04-08T13:07:54;19.30;;;16.30;;
2476;SDS011;1249;51.270;6.756;2023-04-08T13:10:19;27.77;;;22.40;;
2476;SDS011;1249;51.270;6.756;2023-04-08T13:12:45;14.37;;;12.40;;
2476;SDS011;1249;51.270;6.756;2023-04-08T13:15:11;9.93;;;8.00;;
2476;SDS011;1249;51.270;6.756;2023-04-08T13:17:37;9.07;;;8.17;;
2476;SDS011;1249;51.270;6.756;2023-04-08T13:20:02;9.67;;;8.77;;
2476;SDS011;1249;51.270;6.756;2023-04-08T13:22:28;9.20;;;8.30;;
2476;SDS011;1249;51.270;6.756;2023-04-08T13:24:54;8.13;;;7.33;;
2476;SDS011;1249;51.270;6.756;2023-04-08T13:27:19;8.60;;;7.70;;
2476;SDS011;1249;51.270;6.756;2023-04-08T13:29:45;8.83;;;7.90;;
2476;SDS011;1249;51.270;6.756;2023-04-08T13:32:11;7.93;;;7.13;;
2476;SDS011;1249;51.270;6.756;2023-04-08T13:34:36;9.90;;;8.03;;
2476;SDS011;1249;51.270;6.756;2023-04-08T13:37:02;8.97;;;8.17;;
2476;SDS011;1249;51.270;6.756;2023-04-08T13:39:28;8.90;;;8.00;;
2476;SDS011;1249;51.270;6.756;2023-04-08T13:41:53;8.77;;;7.93;;
2476;SDS011;1249;51.270;6.756;2023-04-08T13:44:20;9.10;;;8.20;;
2476;SDS011;1249;51.270;6.756;2023-04-08T13:46:45;10.10;;;9.20;;
2476;SDS011;1249;51.270;6.756;2023-04-08T13:49:11;8.90;;;8.10;;
2476;SDS011;1249;51.270;6.756;2023-04-08T13:51:37;10.10;;;8.50;;
2476;SDS011;1249;51.270;6.756;2023-04-08T13:54:03;8.53;;;7.70;;
2476;SDS011;1249;51.270;6.756;2023-04-08T13:56:28;8.77;;;7.83;;
2476;SDS011;1249;51.270;6.756;2023-04-08T13:58:54;9.07;;;8.23;;
2476;SDS011;1249;51.270;6.756;2023-04-08T14:01:19;9.00;;;8.20;;
2476;SDS011;1249;51.270;6.756;2023-04-08T14:03:45;9.93;;;9.03;;
2476;SDS011;1249;51.270;6.756;2023-04-08T14:06:11;11.90;;;11.00;;
2476;SDS011;1249;51.270;6.756;2023-04-08T14:08:36;10.20;;;8.00;;
2476;SDS011;1249;51.270;6.756;2023-04-08T14:11:02;8.10;;;7.40;;
2476;SDS011;1249;51.270;6.756;2023-04-08T14:13:27;9.10;;;8.30;;
2476;SDS011;1249;51.270;6.756;2023-04-08T14:15:53;8.83;;;7.93;;
2476;SDS011;1249;51.270;6.756;2023-04-08T14:18:22;10.10;;;6.77;;
2476;SDS011;1249;51.270;6.756;2023-04-08T14:20:47;8.83;;;8.00;;
2476;SDS011;1249;51.270;6.756;2023-04-08T14:23:13;8.00;;;7.27;;
2476;SDS011;1249;51.270;6.756;2023-04-08T14:25:38;8.93;;;8.13;;
2476;SDS011;1249;51.270;6.756;2023-04-08T14:28:04;10.93;;;9.07;;
2476;SDS011;1249;51.270;6.756;2023-04-08T14:30:30;10.60;;;8.63;;
2476;SDS011;1249;51.270;6.756;2023-04-08T14:32:56;10.40;;;9.30;;
2476;SDS011;1249;51.270;6.756;2023-04-08T14:35:23;11.73;;;10.60;;
2476;SDS011;1249;51.270;6.756;2023-04-08T14:37:48;10.50;;;9.60;;
2476;SDS011;1249;51.270;6.756;2023-04-08T14:40:14;11.03;;;9.93;;
2476;SDS011;1249;51.270;6.756;2023-04-08T14:42:39;10.57;;;9.67;;
2476;SDS011;1249;51.270;6.756;2023-04-08T14:45:05;11.00;;;10.00;;
2476;SDS011;1249;51.270;6.756;2023-04-08T14:47:31;11.53;;;10.53;;
2476;SDS011;1249;51.270;6.756;2023-04-08T14:49:56;12.37;;;11.30;;
2476;SDS011;1249;51.270;6.756;2023-04-08T14:52:22;11.80;;;10.80;;
2476;SDS011;1249;51.270;6.756;2023-04-08T14:54:48;12.10;;;11.00;;
2476;SDS011;1249;51.270;6.756;2023-04-08T14:57:14;14.90;;;13.30;;
2476;SDS011;1249;51.270;6.756;2023-04-08T14:59:40;15.67;;;13.00;;
2476;SDS011;1249;51.270;6.756;2023-04-08T15:02:06;14.90;;;13.33;;
2476;SDS011;1249;51.270;6.756;2023-04-08T15:04:31;13.73;;;12.33;;
2476;SDS011;1249;51.270;6.756;2023-04-08T15:06:57;14.60;;;13.20;;
2476;SDS011;1249;51.270;6.756;2023-04-08T15:09:22;12.70;;;11.50;;
2476;SDS011;1249;51.270;6.756;2023-04-08T15:11:48;14.60;;;10.43;;
2476;SDS011;1249;51.270;6.756;2023-04-08T15:14:13;11.63;;;10.53;;
2476;SDS011;1249;51.270;6.756;2023-04-08T15:16:39;12.37;;;11.17;;
2476;SDS011;1249;51.270;6.756;2023-04-08T15:19:04;11.47;;;10.47;;
2476;SDS011;1249;51.270;6.756;2023-04-08T15:21:30;12.90;;;11.57;;
2476;SDS011;1249;51.270;6.756;2023-04-08T15:23:56;11.77;;;10.70;;
2476;SDS011;1249;51.270;6.756;2023-04-08T15:26:21;11.23;;;10.17;;
2476;SDS011;1249;51.270;6.756;2023-04-08T15:28:48;10.70;;;9.70;;
2476;SDS011;1249;51.270;6.756;2023-04-08T15:31:14;10.93;;;9.93;;
2476;SDS011;1249;51.270;6.756;2023-04-08T15:33:39;9.93;;;9.13;;
2476;SDS011;1249;51.270;6.756;2023-04-08T15:36:06;10.27;;;9.20;;
2476;SDS011;1249;51.270;6.756;2023-04-08T15:38:32;11.03;;;10.13;;
2476;SDS011;1249;51.270;6.756;2023-04-08T15:40:58;10.60;;;9.70;;
2476;SDS011;1249;51.270;6.756;2023-04-08T15:43:24;11.43;;;9.70;;
2476;SDS011;1249;51.270;6.756;2023-04-08T15:45:49;12.73;;;11.63;;
2476;SDS011;1249;51.270;6.756;2023-04-08T15:48:15;11.97;;;10.77;;
2476;SDS011;1249;51.270;6.756;2023-04-08T15:50:40;11.20;;;10.17;;
2476;SDS011;1249;51.270;6.756;2023-04-08T15:53:06;12.00;;;10.40;;
2476;SDS011;1249;51.270;6.756;2023-04-08T15:55:38;11.60;;;10.40;;
2476;SDS011;1249;51.270;6.756;2023-04-08T15:58:05;11.63;;;10.43;;
2476;SDS011;1249;51.270;6.756;2023-04-08T16:00:31;15.00;;;13.60;;
2476;SDS011;1249;51.270;6.756;2023-04-08T16:02:57;14.97;;;13.40;;
2476;SDS011;1249;51.270;6.756;2023-04-08T16:05:22;16.20;;;14.60;;
2476;SDS011;1249;51.270;6.756;2023-04-08T16:07:48;15.63;;;14.23;;
2476;SDS011;1249;51.270;6.756;2023-04-08T16:10:13;14.57;;;13.27;;
2476;SDS011;1249;51.270;6.756;2023-04-08T16:12:39;14.33;;;12.93;;
2476;SDS011;1249;51.270;6.756;2023-04-08T16:15:05;15.90;;;14.33;;
2476;SDS011;1249;51.270;6.756;2023-04-08T16:17:31;13.67;;;12.27;;
2476;SDS011;1249;51.270;6.756;2023-04-08T16:19:56;15.53;;;14.03;;
2476;SDS011;1249;51.270;6.756;2023-04-08T16:22:22;14.73;;;13.33;;
2476;SDS011;1249;51.270;6.756;2023-04-08T16:24:47;15.63;;;14.03;;
2476;SDS011;1249;51.270;6.756;2023-04-08T16:27:13;13.70;;;12.30;;
2476;SDS011;1249;51.270;6.756;2023-04-08T16:29:38;14.43;;;12.97;;
2476;SDS011;1249;51.270;6.756;2023-04-08T16:32:04;14.23;;;12.77;;
2476;SDS011;1249;51.270;6.756;2023-04-08T16:34:30;14.80;;;12.77;;
2476;SDS011;1249;51.270;6.756;2023-04-08T16:36:56;14.87;;;12.90;;
2476;SDS011;1249;51.270;6.756;2023-04-08T16:39:21;14.97;;;13.47;;
2476;SDS011;1249;51.270;6.756;2023-04-08T16:41:47;32.00;;;23.13;;
2476;SDS011;1249;51.270;6.756;2023-04-08T16:44:13;25.80;;;19.60;;
2476;SDS011;1249;51.270;6.756;2023-04-08T16:46:38;18.83;;;13.97;;
2476;SDS011;1249;51.270;6.756;2023-04-08T16:49:04;15.13;;;13.53;;
2476;SDS011;1249;51.270;6.756;2023-04-08T16:51:30;14.63;;;13.20;;
2476;SDS011;1249;51.270;6.756;2023-04-08T16:53:55;12.83;;;11.10;;
2476;SDS011;1249;51.270;6.756;2023-04-08T16:56:21;14.57;;;12.40;;
2476;SDS011;1249;51.270;6.756;2023-04-08T16:58:46;14.03;;;12.73;;
2476;SDS011;1249;51.270;6.756;2023-04-08T17:01:12;12.43;;;11.23;;
2476;SDS011;1249;51.270;6.756;2023-04-08T17:03:38;13.17;;;11.33;;
2476;SDS011;1249;51.270;6.756;2023-04-08T17:06:04;18.53;;;15.47;;
2476;SDS011;1249;51.270;6.756;2023-04-08T17:08:34;17.47;;;14.50;;
2476;SDS011;1249;51.270;6.756;2023-04-08T17:11:06;16.30;;;14.60;;
2476;SDS011;1249;51.270;6.756;2023-04-08T17:13:34;17.67;;;15.27;;
2476;SDS011;1249;51.270;6.756;2023-04-08T17:16:09;16.53;;;15.03;;
2476;SDS011;1249;51.270;6.756;2023-04-08T17:18:36;17.67;;;15.83;;
2476;SDS011;1249;51.270;6.756;2023-04-08T17:21:01;19.80;;;17.80;;
2476;SDS011;1249;51.270;6.756;2023-04-08T17:23:27;16.93;;;15.23;;
2476;SDS011;1249;51.270;6.756;2023-04-08T17:25:52;19.07;;;17.07;;
2476;SDS011;1249;51.270;6.756;2023-04-08T17:28:18;17.50;;;15.80;;
2476;SDS011;1249;51.270;6.756;2023-04-08T17:30:45;15.90;;;14.23;;
2476;SDS011;1249;51.270;6.756;2023-04-08T17:33:11;17.63;;;15.77;;
2476;SDS011;1249;51.270;6.756;2023-04-08T17:35:37;17.60;;;15.90;;
2476;SDS011;1249;51.270;6.756;2023-04-08T17:38:03;21.13;;;18.43;;
2476;SDS011;1249;51.270;6.756;2023-04-08T17:40:29;17.27;;;15.40;;
2476;SDS011;1249;51.270;6.756;2023-04-08T17:42:55;16.77;;;15.07;;
2476;SDS011;1249;51.270;6.756;2023-04-08T17:45:23;16.83;;;15.33;;
2476;SDS011;1249;51.270;6.756;2023-04-08T17:47:49;17.10;;;14.30;;
2476;SDS011;1249;51.270;6.756;2023-04-08T17:50:16;17.37;;;15.73;;
2476;SDS011;1249;51.270;6.756;2023-04-08T17:52:42;15.70;;;14.17;;
2476;SDS011;1249;51.270;6.756;2023-04-08T17:55:09;17.63;;;16.00;;
2476;SDS011;1249;51.270;6.756;2023-04-08T17:57:37;17.30;;;15.50;;
2476;SDS011;1249;51.270;6.756;2023-04-08T18:00:04;15.20;;;13.70;;
2476;SDS011;1249;51.270;6.756;2023-04-08T18:02:30;15.47;;;13.97;;
2476;SDS011;1249;51.270;6.756;2023-04-08T18:04:59;15.40;;;13.93;;
2476;SDS011;1249;51.270;6.756;2023-04-08T18:07:27;15.40;;;13.80;;
2476;SDS011;1249;51.270;6.756;2023-04-08T18:09:56;16.40;;;14.70;;
2476;SDS011;1249;51.270;6.756;2023-04-08T18:12:31;16.90;;;15.17;;
2476;SDS011;1249;51.270;6.756;2023-04-08T18:14:59;17.80;;;16.00;;
2476;SDS011;1249;51.270;6.756;2023-04-08T18:17:25;20.07;;;17.50;;
2476;SDS011;1249;51.270;6.756;2023-04-08T18:19:51;20.37;;;16.40;;
2476;SDS011;1249;51.270;6.756;2023-04-08T18:22:17;21.90;;;19.53;;
2476;SDS011;1249;51.270;6.756;2023-04-08T18:24:44;20.70;;;18.60;;
2476;SDS011;1249;51.270;6.756;2023-04-08T18:27:09;20.00;;;17.00;;
2476;SDS011;1249;51.270;6.756;2023-04-08T18:29:35;19.97;;;17.87;;
2476;SDS011;1249;51.270;6.756;2023-04-08T18:32:01;21.97;;;18.60;;
2476;SDS011;1249;51.270;6.756;2023-04-08T18:34:27;17.27;;;15.47;;
2476;SDS011;1249;51.270;6.756;2023-04-08T18:36:52;15.73;;;14.13;;
2476;SDS011;1249;51.270;6.756;2023-04-08T18:39:18;15.33;;;13.93;;
2476;SDS011;1249;51.270;6.756;2023-04-08T18:41:43;18.20;;;16.60;;
2476;SDS011;1249;51.270;6.756;2023-04-08T18:44:09;16.10;;;14.50;;
2476;SDS011;1249;51.270;6.756;2023-04-08T18:46:34;14.20;;;12.80;;
2476;SDS011;1249;51.270;6.756;2023-04-08T18:49:00;15.60;;;14.10;;
2476;SDS011;1249;51.270;6.756;2023-04-08T18:51:26;14.43;;;12.93;;
2476;SDS011;1249;51.270;6.756;2023-04-08T18:53:52;16.00;;;12.80;;
2476;SDS011;1249;51.270;6.756;2023-04-08T18:56:18;13.20;;;11.97;;
2476;SDS011;1249;51.270;6.756;2023-04-08T18:58:45;15.43;;;13.83;;
2476;SDS011;1249;51.270;6.756;2023-04-08T19:01:14;15.03;;;13.67;;
2476;SDS011;1249;51.270;6.756;2023-04-08T19:03:42;15.97;;;14.07;;
2476;SDS011;1249;51.270;6.756;2023-04-08T19:06:09;17.30;;;15.50;;
2476;SDS011;1249;51.270;6.756;2023-04-08T19:08:36;19.17;;;15.00;;
2476;SDS011;1249;51.270;6.756;2023-04-08T19:11:02;16.10;;;13.97;;
2476;SDS011;1249;51.270;6.756;2023-04-08T19:13:28;16.47;;;14.67;;
2476;SDS011;1249;51.270;6.756;2023-04-08T19:15:54;15.37;;;13.53;;
2476;SDS011;1249;51.270;6.756;2023-04-08T19:18:20;17.03;;;15.23;;
2476;SDS011;1249;51.270;6.756;2023-04-08T19:20:45;16.90;;;15.30;;
2476;SDS011;1249;51.270;6.756;2023-04-08T19:23:12;16.60;;;14.50;;
2476;SDS011;1249;51.270;6.756;2023-04-08T19:25:38;18.43;;;14.53;;
2476;SDS011;1249;51.270;6.756;2023-04-08T19:28:03;14.37;;;12.90;;
2476;SDS011;1249;51.270;6.756;2023-04-08T19:30:35;14.20;;;12.80;;
2476;SDS011;1249;51.270;6.756;2023-04-08T19:33:04;14.63;;;13.07;;
2476;SDS011;1249;51.270;6.756;2023-04-08T19:35:29;16.10;;;14.20;;
2476;SDS011;1249;51.270;6.756;2023-04-08T19:37:55;16.10;;;14.40;;
2476;SDS011;1249;51.270;6.756;2023-04-08T19:40:20;21.87;;;18.63;;
2476;SDS011;1249;51.270;6.756;2023-04-08T19:42:46;18.10;;;16.20;;
2476;SDS011;1249;51.270;6.756;2023-04-08T19:45:12;15.30;;;13.70;;
2476;SDS011;1249;51.270;6.756;2023-04-08T19:47:40;15.97;;;14.30;;
2476;SDS011;1249;51.270;6.756;2023-04-08T19:50:09;18.13;;;16.17;;
2476;SDS011;1249;51.270;6.756;2023-04-08T19:52:35;15.17;;;13.23;;
2476;SDS011;1249;51.270;6.756;2023-04-08T19:55:01;17.20;;;15.40;;
2476;SDS011;1249;51.270;6.756;2023-04-08T19:57:27;18.47;;;16.50;;
2476;SDS011;1249;51.270;6.756;2023-04-08T19:59:53;18.67;;;16.77;;
2476;SDS011;1249;51.270;6.756;2023-04-08T20:02:19;19.63;;;17.57;;
2476;SDS011;1249;51.270;6.756;2023-04-08T20:04:45;19.50;;;17.00;;
2476;SDS011;1249;51.270;6.756;2023-04-08T20:07:11;17.43;;;15.67;;